Time;durP1;ratioP1;P1;durP2;ratioP2;P2;SDS_P1;SDS_P2;PMS_P1;PMS_P2;Temp;Humidity;BMP_temperature;BMP_pressure;BME280_temperature;BME280_humidity;BME280_pressure;Samples;Min_cycle;Max_cycle;Signal;HPM_P1;HPM_P2
2022/03/17 00:02:02;;;;;;;25.77;16.58;;;;;;;;;;5086026;28;20108;-63
2022/03/17 00:04:28;;;;;;;24.10;16.40;;;;;;;;;;5086429;28;20042;-63
2022/03/17 00:06:54;;;;;;;23.45;15.63;;;;;;;;;;5089014;28;20458;-62
2022/03/17 00:09:20;;;;;;;23.73;16.25;;;;;;;;;;5088748;28;20036;-63
2022/03/17 00:11:47;;;;;;;24.40;16.23;;;;;;;;;;5088528;28;20047;-63
2022/03/17 00:14:13;;;;;;;23.80;16.05;;;;;;;;;;5089052;28;20051;-63
2022/03/17 00:16:40;;;;;;;24.25;15.50;;;;;;;;;;5087065;28;20044;-62
2022/03/17 00:19:08;;;;;;;23.23;16.42;;;;;;;;;;5090134;28;20083;-63
2022/03/17 00:21:35;;;;;;;22.35;15.55;;;;;;;;;;5087384;28;20050;-63
2022/03/17 00:24:02;;;;;;;24.67;16.20;;;;;;;;;;5084630;28;20032;-62
2022/03/17 00:26:28;;;;;;;24.00;16.55;;;;;;;;;;5088599;28;20075;-62
2022/03/17 00:28:54;;;;;;;23.73;16.38;;;;;;;;;;5089064;28;20078;-63
2022/03/17 00:31:20;;;;;;;22.52;15.52;;;;;;;;;;5089701;28;20081;-62
2022/03/17 00:33:46;;;;;;;22.45;16.00;;;;;;;;;;5087203;28;20483;-63
2022/03/17 00:36:12;;;;;;;23.30;16.65;;;;;;;;;;5088511;28;20032;-63
2022/03/17 00:38:38;;;;;;;25.00;16.27;;;;;;;;;;5087624;28;20032;-62
2022/03/17 00:41:04;;;;;;;23.23;16.35;;;;;;;;;;5088414;28;20161;-63
2022/03/17 00:43:30;;;;;;;22.65;15.50;;;;;;;;;;5088793;28;20051;-62
2022/03/17 00:45:56;;;;;;;24.17;17.38;;;;;;;;;;5089772;28;20115;-62
2022/03/17 00:48:23;;;;;;;24.90;16.15;;;;;;;;;;5090419;28;20069;-64
2022/03/17 00:50:49;;;;;;;25.30;16.77;;;;;;;;;;5089245;28;20430;-61
2022/03/17 00:53:15;;;;;;;25.60;15.85;;;;;;;;;;5089627;28;20044;-62
2022/03/17 00:55:41;;;;;;;23.45;16.80;;;;;;;;;;5089727;28;20113;-62
2022/03/17 00:58:07;;;;;;;23.30;16.85;;;;;;;;;;5089624;28;20464;-62
2022/03/17 01:00:33;;;;;;;24.92;16.17;;;;;;;;;;5087014;28;20049;-63
2022/03/17 01:02:59;;;;;;;22.42;16.00;;;;;;;;;;5088735;28;20036;-62
2022/03/17 01:05:25;;;;;;;25.23;16.65;;;;;;;;;;5089508;28;20046;-63
2022/03/17 01:07:54;;;;;;;23.58;16.15;;;;;;;;;;5087304;28;20047;-62
2022/03/17 01:10:21;;;;;;;23.83;16.60;;;11.00;99.90;;;;;;5087797;28;20071;-62
2022/03/17 01:12:48;;;;;;;25.55;16.80;;;;;;;;;;5087662;28;20050;-63
2022/03/17 01:15:16;;;;;;;27.40;17.33;;;10.70;99.90;;;;;;5089904;28;20077;-62
2022/03/17 01:17:42;;;;;;;25.02;16.35;;;;;;;;;;5088842;28;20062;-62
2022/03/17 01:20:10;;;;;;;23.38;15.80;;;10.70;99.90;;;;;;5086937;28;20126;-62
2022/03/17 01:22:36;;;;;;;23.90;15.25;;;;;;;;;;5089814;28;20040;-62
2022/03/17 01:25:02;;;;;;;22.02;15.75;;;;;;;;;;5087392;28;20032;-62
2022/03/17 01:27:29;;;;;;;24.52;15.98;;;;;;;;;;5087381;28;20036;-64
2022/03/17 01:29:55;;;;;;;22.00;16.33;;;;;;;;;;5087048;28;20541;-63
2022/03/17 01:32:22;;;;;;;20.73;14.00;;;;;;;;;;5087244;28;20106;-62
2022/03/17 01:34:48;;;;;;;24.05;16.67;;;;;;;;;;5086902;28;20043;-62
2022/03/17 01:37:14;;;;;;;25.48;16.75;;;;;;;;;;5088547;28;20063;-63
2022/03/17 01:39:40;;;;;;;26.40;16.65;;;;;;;;;;5089803;28;20032;-62
2022/03/17 01:42:07;;;;;;;27.85;16.90;;;;;;;;;;5088473;28;20108;-64
2022/03/17 01:44:34;;;;;;;25.40;17.33;;;;;;;;;;5089458;28;20040;-62
2022/03/17 01:49:45;;;;;;;24.17;16.75;;;;;;;;;;5089307;28;20040;-62
2022/03/17 01:52:11;;;;;;;30.10;17.63;;;;;;;;;;5089191;28;20040;-62
2022/03/17 01:54:37;;;;;;;23.05;17.42;;;;;;;;;;5089649;28;20062;-62
2022/03/17 01:57:05;;;;;;;22.92;16.67;;;10.50;99.90;;;;;;5089257;28;20067;-62
2022/03/17 01:59:33;;;;;;;22.35;16.67;;;;;;;;;;5091307;28;20067;-63
2022/03/17 02:01:59;;;;;;;26.58;17.25;;;;;;;;;;5093788;28;20040;-62
2022/03/17 02:04:25;;;;;;;24.30;16.85;;;;;;;;;;5093455;28;20043;-62
2022/03/17 02:06:51;;;;;;;27.77;18.25;;;10.40;99.90;;;;;;5093770;28;20561;-62
2022/03/17 02:09:18;;;;;;;26.45;18.25;;;;;;;;;;5093196;28;20046;-62
2022/03/17 02:14:34;;;;;;;25.45;17.83;;;;;;;;;;5093296;28;20036;-63
2022/03/17 02:17:00;;;;;;;24.02;16.90;;;;;;;;;;5092990;28;20031;-63
2022/03/17 02:19:26;;;;;;;26.17;18.52;;;;;;;;;;5092803;28;20032;-63
2022/03/17 02:21:52;;;;;;;27.30;18.48;;;;;;;;;;5093137;28;20094;-63
2022/03/17 02:27:03;;;;;;;26.20;18.35;;;10.50;99.90;;;;;;5090120;28;20032;-62
2022/03/17 02:29:30;;;;;;;26.05;17.73;;;;;;;;;;5092269;28;20071;-62
2022/03/17 02:31:57;;;;;;;27.92;19.83;;;;;;;;;;5093302;28;20032;-62
2022/03/17 02:34:23;;;;;;;23.73;16.98;;;;;;;;;;5092699;28;20372;-63
2022/03/17 02:36:51;;;;;;;24.92;19.52;;;10.60;99.90;;;;;;5092589;28;20042;-62
2022/03/17 02:39:20;;;;;;;27.85;19.48;;;10.60;99.90;;;;;;5092384;28;20074;-62
2022/03/17 02:41:46;;;;;;;25.73;19.08;;;;;;;;;;5092693;28;20832;-62
2022/03/17 02:44:12;;;;;;;26.75;18.38;;;10.70;99.90;;;;;;5091496;28;20043;-62
2022/03/17 02:46:38;;;;;;;26.50;19.08;;;;;;;;;;5092648;28;20066;-62
2022/03/17 02:49:05;;;;;;;25.45;19.30;;;;;;;;;;5091238;28;20051;-63
2022/03/17 02:51:31;;;;;;;30.10;18.67;;;;;;;;;;5092065;28;20040;-62
2022/03/17 02:53:57;;;;;;;24.55;18.05;;;;;;;;;;5092920;28;20459;-63
2022/03/17 02:56:24;;;;;;;27.30;20.02;;;;;;;;;;5089204;28;20051;-62
2022/03/17 02:58:51;;;;;;;26.80;18.60;;;;;;;;;;5089818;28;20225;-63
2022/03/17 03:01:17;;;;;;;30.98;20.52;;;;;;;;;;5087272;28;21501;-63
2022/03/17 03:03:43;;;;;;;24.88;19.13;;;;;;;;;;5090921;28;20131;-63
2022/03/17 03:06:09;;;;;;;27.80;20.52;;;;;;;;;;5091582;28;20040;-61
2022/03/17 03:08:35;;;;;;;25.55;20.00;;;;;;;;;;5091477;28;20040;-62
2022/03/17 03:11:01;;;;;;;27.98;20.88;;;;;;;;;;5089717;28;20368;-62
2022/03/17 03:13:27;;;;;;;28.45;21.27;;;;;;;;;;5091757;28;20440;-62
2022/03/17 03:15:53;;;;;;;27.70;20.35;;;;;;;;;;5090370;28;20046;-62
2022/03/17 03:18:19;;;;;;;29.38;20.35;;;;;;;;;;5088025;28;20500;-63
2022/03/17 03:20:45;;;;;;;32.33;20.13;;;;;;;;;;5089380;28;20039;-63
2022/03/17 03:23:12;;;;;;;28.50;20.92;;;;;;;;;;5088809;28;20036;-62
2022/03/17 03:25:38;;;;;;;31.15;20.25;;;;;;;;;;5091497;28;20115;-63
2022/03/17 03:28:09;;;;;;;31.02;21.17;;;10.80;99.90;;;;;;5091907;28;20048;-63
2022/03/17 03:30:36;;;;;;;31.10;22.05;;;;;;;;;;5089012;28;20048;-63
2022/03/17 03:33:03;;;;;;;28.70;21.00;;;;;;;;;;5090871;28;20122;-62
2022/03/17 03:38:14;;;;;;;27.85;21.13;;;;;;;;;;5091072;28;20127;-62
2022/03/17 03:40:40;;;;;;;28.95;22.83;;;;;;;;;;5091250;28;20138;-63
2022/03/17 03:43:06;;;;;;;29.92;21.48;;;;;;;;;;5090685;28;20097;-63
2022/03/17 03:45:32;;;;;;;28.95;22.00;;;;;;;;;;5088873;28;20045;-62
2022/03/17 03:47:58;;;;;;;30.08;22.23;;;;;;;;;;5089519;28;20397;-62
2022/03/17 03:50:25;;;;;;;32.00;23.40;;;;;;;;;;5089320;28;20121;-63
2022/03/17 03:52:51;;;;;;;33.83;23.55;;;;;;;;;;5088484;28;20040;-60
2022/03/17 03:55:17;;;;;;;36.55;24.05;;;;;;;;;;5088792;28;20110;-62
2022/03/17 03:57:46;;;;;;;34.85;25.02;;;;;;;;;;5090323;28;20039;-62
2022/03/17 04:03:03;;;;;;;34.53;24.38;;;;;;;;;;5008258;28;20089;-62
2022/03/17 04:05:33;;;;;;;36.72;26.42;;;;;;;;;;5007968;28;20088;-63
2022/03/17 04:07:59;;;;;;;33.42;24.92;;;;;;;;;;5008627;28;20054;-62
2022/03/17 04:10:25;;;;;;;37.58;24.25;;;;;;;;;;5008279;28;20403;-63
2022/03/17 04:12:51;;;;;;;38.88;25.95;;;;;;;;;;5008449;28;20046;-62
2022/03/17 04:15:17;;;;;;;37.70;25.83;;;;;;;;;;4990739;28;20053;-62
2022/03/17 04:17:43;;;;;;;37.35;27.08;;;;;;;;;;5008241;28;20041;-62
2022/03/17 04:20:10;;;;;;;38.83;27.20;;;;;;;;;;5008155;28;20610;-62
2022/03/17 04:22:37;;;;;;;40.83;28.42;;;;;;;;;;5006732;28;20046;-61
2022/03/17 04:25:03;;;;;;;39.50;27.83;;;;;;;;;;5007892;28;20046;-62
2022/03/17 04:27:29;;;;;;;40.55;27.60;;;;;;;;;;5004419;28;20405;-63
2022/03/17 04:29:55;;;;;;;41.33;27.65;;;;;;;;;;5007565;28;20133;-62
2022/03/17 04:32:21;;;;;;;45.28;29.25;;;;;;;;;;5008379;28;20045;-62
2022/03/17 04:34:47;;;;;;;41.05;28.42;;;;;;;;;;5006382;28;20037;-63
2022/03/17 04:37:14;;;;;;;44.78;29.00;;;;;;;;;;5007852;28;20037;-63
2022/03/17 04:39:40;;;;;;;45.08;29.42;;;;;;;;;;5035345;28;20452;-62
2022/03/17 04:42:06;;;;;;;42.08;28.70;;;;;;;;;;5090997;28;20036;-62
2022/03/17 04:44:32;;;;;;;45.88;29.27;;;;;;;;;;5089957;28;20047;-63
2022/03/17 04:46:58;;;;;;;46.75;28.98;;;;;;;;;;5090403;28;20040;-63
2022/03/17 04:49:24;;;;;;;28.30;18.42;;;;;;;;;;5090081;28;20032;-63
2022/03/17 04:51:50;;;;;;;14.68;9.85;;;;;;;;;;5090427;28;20043;-63
2022/03/17 04:54:16;;;;;;;12.60;8.75;;;;;;;;;;5090215;28;20126;-62
2022/03/17 04:56:43;;;;;;;14.88;8.98;;;;;;;;;;5090064;28;20032;-62
2022/03/17 04:59:09;;;;;;;11.10;8.55;;;;;;;;;;5089810;28;20495;-62
2022/03/17 05:01:35;;;;;;;12.38;8.60;;;;;;;;;;5090114;28;20048;-62
2022/03/17 05:04:01;;;;;;;11.32;8.77;;;;;;;;;;5090379;28;20054;-62
2022/03/17 05:06:28;;;;;;;15.57;9.30;;;;;;;;;;5090238;28;20102;-62
2022/03/17 05:08:54;;;;;;;12.25;8.55;;;;;;;;;;5089921;28;20038;-61
2022/03/17 05:11:20;;;;;;;10.65;8.30;;;;;;;;;;5088306;28;20043;-62
2022/03/17 05:13:50;;;;;;;12.93;9.13;;;;;;;;;;5089001;28;20573;-62
2022/03/17 05:16:17;;;;;;;12.50;8.63;;;;;;;;;;5088928;28;20075;-62
2022/03/17 05:18:43;;;;;;;10.35;7.85;;;;;;;;;;5089712;28;20082;-61
2022/03/17 05:21:09;;;;;;;10.98;7.95;;;;;;;;;;5087166;28;20550;-63
2022/03/17 05:23:35;;;;;;;10.77;8.32;;;;;;;;;;5089949;28;20127;-62
2022/03/17 05:26:01;;;;;;;10.63;8.68;;;;;;;;;;5089730;28;20124;-63
2022/03/17 05:28:27;;;;;;;11.45;7.70;;;;;;;;;;5089610;28;20570;-61
2022/03/17 05:30:53;;;;;;;11.77;7.30;;;;;;;;;;5089422;28;20051;-62
2022/03/17 05:33:19;;;;;;;14.27;7.53;;;;;;;;;;5089092;28;20114;-62
2022/03/17 05:35:45;;;;;;;13.88;8.40;;;;;;;;;;5093683;28;20028;-62
2022/03/17 05:38:12;;;;;;;11.20;7.47;;;;;;;;;;5094201;28;20024;-62
2022/03/17 05:40:38;;;;;;;10.50;7.65;;;;;;;;;;5093214;28;20040;-63
2022/03/17 05:43:07;;;;;;;11.95;8.02;;;;;;;;;;5094176;28;20119;-62
2022/03/17 05:45:34;;;;;;;12.65;8.32;;;;;;;;;;5086220;28;20098;-62
2022/03/17 05:48:01;;;;;;;18.48;9.23;;;7.80;99.90;;;;;;5092114;28;20119;-63
2022/03/17 05:50:28;;;;;;;12.32;7.78;;;;;;;;;;5091569;28;20040;-62
2022/03/17 05:52:54;;;;;;;13.88;7.60;;;;;;;;;;5091694;28;20090;-62
2022/03/17 05:55:21;;;;;;;12.48;8.13;;;;;;;;;;5091716;28;20040;-62
2022/03/17 05:57:48;;;;;;;14.40;8.50;;;;;;;;;;5089002;28;20028;-62
2022/03/17 06:00:16;;;;;;;17.58;8.80;;;;;;;;;;5090956;28;20097;-62
2022/03/17 06:02:42;;;;;;;14.10;8.55;;;;;;;;;;5091241;28;20486;-62
2022/03/17 06:05:08;;;;;;;13.15;8.13;;;;;;;;;;5093655;28;20075;-62
2022/03/17 06:07:41;;;;;;;13.63;7.03;;;;;;;;;;5093275;28;20516;-61
2022/03/17 06:10:11;;;;;;;15.88;7.45;;;7.60;99.90;;;;;;5093423;28;20082;-63
2022/03/17 06:12:38;;;;;;;17.95;8.07;;;;;;;;;;5091269;28;20073;-63
2022/03/17 06:15:05;;;;;;;17.02;7.32;;;;;;;;;;5091694;28;20044;-63
2022/03/17 06:17:41;;;;;;;15.73;7.00;;;;;;;;;;5092571;28;20181;-63
2022/03/17 06:20:09;;;;;;;11.13;6.13;;;;;;;;;;5092511;28;20086;-63
2022/03/17 06:22:36;;;;;;;15.32;7.18;;;;;;;;;;5093411;28;20406;-63
2022/03/17 06:25:03;;;;;;;18.42;7.35;;;;;;;;;;5092398;28;20050;-63
2022/03/17 06:27:29;;;;;;;13.40;6.28;;;;;;;;;;5093365;28;20047;-64
2022/03/17 06:29:55;;;;;;;12.57;5.65;;;;;;;;;;5090552;28;20043;-63
2022/03/17 06:32:21;;;;;;;16.80;5.00;;;;;;;;;;5093051;28;20394;-63
2022/03/17 06:34:47;;;;;;;14.05;5.00;;;;;;;;;;5092754;28;20051;-63
2022/03/17 06:37:13;;;;;;;13.95;4.53;;;;;;;;;;5091176;28;20032;-62
2022/03/17 06:39:39;;;;;;;13.00;4.38;;;;;;;;;;5091156;28;20075;-62
2022/03/17 06:42:05;;;;;;;14.07;4.35;;;;;;;;;;5091260;28;20043;-63
2022/03/17 06:44:31;;;;;;;15.30;3.90;;;;;;;;;;5090187;28;20036;-62
2022/03/17 06:46:57;;;;;;;12.30;3.97;;;;;;;;;;5088357;28;20720;-62
2022/03/17 06:49:23;;;;;;;11.60;3.38;;;;;;;;;;5092191;28;20036;-63
2022/03/17 06:51:49;;;;;;;10.18;3.10;;;;;;;;;;5089625;28;20044;-62
2022/03/17 06:54:15;;;;;;;12.18;3.72;;;;;;;;;;5092196;28;20032;-62
2022/03/17 06:56:41;;;;;;;9.05;2.60;;;;;;;;;;5091043;28;20479;-63
2022/03/17 06:59:07;;;;;;;15.82;2.80;;;;;;;;;;5090211;28;20055;-63
2022/03/17 07:01:33;;;;;;;14.43;3.13;;;;;;;;;;5092806;28;20147;-62
2022/03/17 07:03:59;;;;;;;10.63;2.40;;;;;;;;;;5093043;28;20139;-63
2022/03/17 07:06:25;;;;;;;10.93;2.78;;;;;;;;;;5093329;28;20071;-62
2022/03/17 07:08:51;;;;;;;15.07;4.10;;;;;;;;;;5093189;28;20055;-63
2022/03/17 07:11:20;;;;;;;16.13;5.05;;;;;;;;;;5092836;28;20036;-62
2022/03/17 07:13:46;;;;;;;18.88;5.13;;;;;;;;;;5093015;28;20119;-63
2022/03/17 07:16:13;;;;;;;15.85;5.25;;;;;;;;;;5093279;28;20040;-63
2022/03/17 07:18:39;;;;;;;18.40;3.95;;;;;;;;;;5092922;28;20044;-63
2022/03/17 07:21:05;;;;;;;20.88;4.97;;;;;;;;;;5092935;28;20542;-63
2022/03/17 07:23:31;;;;;;;15.13;4.22;;;;;;;;;;5092564;28;20046;-63
2022/03/17 07:25:57;;;;;;;16.88;3.75;;;;;;;;;;5093044;28;20058;-62
2022/03/17 07:28:23;;;;;;;13.15;3.53;;;;;;;;;;5092527;28;20055;-62
2022/03/17 07:30:49;;;;;;;18.60;2.72;;;;;;;;;;5092596;28;20394;-63
2022/03/17 07:33:15;;;;;;;14.30;2.50;;;;;;;;;;5092307;28;20047;-62
2022/03/17 07:35:41;;;;;;;13.20;2.25;;;;;;;;;;5092920;28;20051;-62
2022/03/17 07:38:07;;;;;;;8.27;2.03;;;;;;;;;;5092639;28;20450;-63
2022/03/17 07:40:33;;;;;;;12.30;1.98;;;;;;;;;;5092559;28;20051;-63
2022/03/17 07:43:00;;;;;;;14.43;2.25;;;;;;;;;;5092489;28;20043;-63
2022/03/17 07:45:26;;;;;;;15.35;2.47;;;;;;;;;;5092261;28;20043;-63
2022/03/17 07:47:52;;;;;;;10.30;2.20;;;;;;;;;;5092259;28;20043;-63
2022/03/17 07:50:19;;;;;;;9.13;2.13;;;;;;;;;;5090887;28;20097;-63
2022/03/17 07:52:45;;;;;;;10.85;1.92;;;;;;;;;;5092490;28;20047;-63
2022/03/17 07:55:12;;;;;;;15.93;1.95;;;;;;;;;;5092395;28;20111;-63
2022/03/17 07:57:38;;;;;;;14.38;2.58;;;;;;;;;;5091140;28;20118;-63
2022/03/17 08:00:05;;;;;;;14.57;2.55;;;;;;;;;;5092021;28;20060;-62
2022/03/17 08:02:32;;;;;;;8.18;1.90;;;;;;;;;;5091893;28;20101;-63
2022/03/17 08:04:58;;;;;;;12.25;2.67;;;;;;;;;;5091123;28;20482;-62
2022/03/17 08:07:24;;;;;;;15.93;2.03;;;;;;;;;;5091721;28;20446;-63
2022/03/17 08:09:50;;;;;;;16.23;2.38;;;;;;;;;;5091897;28;20093;-63
2022/03/17 08:12:16;;;;;;;13.63;1.88;;;;;;;;;;5092038;28;20394;-62
2022/03/17 08:14:43;;;;;;;13.73;2.53;;;;;;;;;;5090416;28;20051;-63
2022/03/17 08:17:09;;;;;;;18.23;1.80;;;;;;;;;;5090601;28;20032;-62
2022/03/17 08:19:36;;;;;;;14.02;1.90;;;;;;;;;;5091758;28;20050;-62
2022/03/17 08:22:02;;;;;;;12.45;1.67;;;;;;;;;;5091842;28;20047;-63
2022/03/17 08:24:28;;;;;;;14.88;1.98;;;;;;;;;;5091428;28;20039;-63
2022/03/17 08:26:55;;;;;;;13.93;2.25;;;;;;;;;;5091701;28;20475;-63
2022/03/17 08:29:22;;;;;;;11.45;2.00;;;;;;;;;;5091443;28;20055;-62
2022/03/17 08:31:48;;;;;;;10.85;1.60;;;;;;;;;;5084910;28;20186;-63
2022/03/17 08:34:14;;;;;;;19.58;2.28;;;;;;;;;;5091769;28;20410;-63
2022/03/17 08:36:40;;;;;;;13.55;1.70;;;;;;;;;;5091468;28;20039;-62
2022/03/17 08:39:06;;;;;;;13.15;2.05;;;;;;;;;;5091498;28;20032;-62
2022/03/17 08:41:32;;;;;;;12.98;1.45;;;;;;;;;;5091136;28;20123;-62
2022/03/17 08:43:58;;;;;;;15.05;2.60;;;;;;;;;;5091158;28;20414;-62
2022/03/17 08:49:18;;;;;;;18.15;1.98;;;;;;;;;;5091321;28;20035;-63
2022/03/17 08:51:44;;;;;;;14.60;2.35;;;;;;;;;;5090312;28;20051;-63
2022/03/17 08:54:11;;;;;;;14.85;1.77;;;;;;;;;;5091081;28;20166;-63
2022/03/17 08:56:37;;;;;;;16.13;2.13;;;;;;;;;;5090773;28;20044;-63
2022/03/17 08:59:04;;;;;;;16.70;2.13;;;;;;;;;;5091075;28;20052;-62
2022/03/17 09:01:30;;;;;;;17.25;2.85;;;;;;;;;;5090932;28;20043;-63
2022/03/17 09:03:56;;;;;;;11.77;1.88;;;;;;;;;;5091141;28;20089;-63
2022/03/17 09:06:22;;;;;;;17.05;1.63;;;;;;;;;;5089659;28;20131;-63
2022/03/17 09:08:48;;;;;;;11.32;2.15;;;;;;;;;;5090902;28;20036;-63
2022/03/17 09:11:15;;;;;;;10.20;2.13;;;;;;;;;;5090850;28;20410;-63
2022/03/17 09:13:41;;;;;;;12.57;2.72;;;;;;;;;;5090644;28;20044;-63
2022/03/17 09:16:08;;;;;;;15.27;1.65;;;;;;;;;;5089576;28;20081;-63
2022/03/17 09:18:34;;;;;;;18.92;2.35;;;;;;;;;;5090797;28;20040;-63
2022/03/17 09:21:00;;;;;;;11.35;1.73;;;;;;;;;;5090886;28;20093;-63
2022/03/17 09:23:29;;;;;;;15.88;2.33;;;;;;;;;;5090713;28;20402;-63
2022/03/17 09:25:56;;;;;;;14.60;1.73;;;;;;;;;;5090665;28;20100;-63
2022/03/17 09:28:22;;;;;;;12.57;1.67;;;;;;;;;;5090974;28;20389;-62
2022/03/17 09:30:50;;;;;;;14.38;1.85;;;;;;;;;;5090663;28;20487;-62
2022/03/17 09:33:17;;;;;;;10.35;1.75;;;;;;;;;;5090961;28;20080;-63
2022/03/17 09:35:43;;;;;;;14.88;1.70;;;;;;;;;;5090446;28;20490;-63
2022/03/17 09:38:09;;;;;;;9.77;1.63;;;;;;;;;;5090547;28;20489;-63
2022/03/17 09:40:36;;;;;;;10.98;1.85;;;;;;;;;;5090714;28;20097;-63
2022/03/17 09:43:18;;;;;;;16.17;2.00;;;;;;;;;;5090440;28;20044;-63
2022/03/17 09:45:45;;;;;;;13.48;2.10;;;;;;;;;;5089161;28;20412;-63
2022/03/17 09:48:11;;;;;;;13.15;1.77;;;;;;;;;;5089583;28;20105;-63
2022/03/17 09:50:38;;;;;;;8.32;1.30;;;8.50;99.90;;;;;;5090224;28;20481;-62
2022/03/17 09:53:05;;;;;;;10.35;1.60;;;8.50;99.90;;;;;;5089015;28;20043;-63
2022/03/17 09:55:31;;;;;;;9.80;1.35;;;;;;;;;;5090640;28;20044;-63
2022/03/17 09:57:57;;;;;;;12.35;1.70;;;;;;;;;;5090381;28;20044;-63
2022/03/17 10:00:47;;;;;;;12.80;1.40;;;;;;;;;;5090366;28;20127;-63
2022/03/17 10:03:09;;;;;;;8.23;1.20;;;;;;;;;;5090064;28;20046;-64
2022/03/17 10:05:35;;;;;;;5.45;1.20;;;;;;;;;;5090228;28;20486;-63
2022/03/17 10:08:01;;;;;;;11.68;1.10;;;;;;;;;;5090338;28;20051;-63
2022/03/17 10:10:37;;;;;;;8.70;1.30;;;;;;;;;;5090036;28;20482;-62
2022/03/17 10:13:28;;;;;;;11.32;1.17;;;9.30;99.90;;;;;;5090216;28;20272;-62
2022/03/17 10:16:07;;;;;;;10.48;1.20;;;;;;;;;;5089918;28;20040;-63
2022/03/17 10:18:37;;;;;;;9.65;1.40;;;;;;;;;;5089250;28;20545;-63
2022/03/17 10:21:12;;;;;;;8.07;1.35;;;;;;;;;;5093005;28;20035;-62
2022/03/17 10:23:55;;;;;;;6.85;1.63;;;;;;;;;;5092548;28;20159;-63
2022/03/17 10:26:34;;;;;;;6.65;1.23;;;;;;;;;;5094060;28;20097;-63
2022/03/17 10:29:04;;;;;;;8.38;1.20;;;10.90;99.90;;;;;;5093654;28;20036;-63
2022/03/17 10:31:30;;;;;;;11.65;1.27;;;;;;;;;;5093932;28;20075;-63
2022/03/17 10:33:57;;;;;;;8.07;1.42;;;;;;;;;;5093623;28;20090;-63
2022/03/17 10:36:23;;;;;;;4.85;1.10;;;;;;;;;;5094095;28;20036;-64
2022/03/17 10:38:49;;;;;;;8.73;1.20;;;;;;;;;;5092524;28;20131;-62
2022/03/17 10:41:16;;;;;;;9.00;1.15;;;;;;;;;;5093602;28;20115;-63
2022/03/17 10:43:42;;;;;;;8.93;1.40;;;;;;;;;;5093617;28;20122;-63
2022/03/17 10:46:11;;;;;;;9.68;1.70;;;;;;;;;;5092129;28;20088;-63
2022/03/17 10:49:02;;;;;;;7.90;1.02;;;10.80;99.90;;;;;;5092610;28;20489;-63
2022/03/17 10:51:32;;;;;;;5.47;1.20;;;;;;;;;;5093765;28;20177;-63
2022/03/17 10:54:03;;;;;;;10.57;1.77;;;10.80;99.90;;;;;;5093398;28;20072;-63
2022/03/17 10:56:29;;;;;;;6.63;1.60;;;;;;;;;;5093491;28;20036;-63
2022/03/17 10:58:56;;;;;;;7.63;1.55;;;;;;;;;;5093260;28;20066;-63
2022/03/17 11:01:37;;;;;;;10.68;1.70;;;;;;;;;;5093593;28;20522;-63
2022/03/17 11:04:04;;;;;;;7.28;1.73;;;;;;;;;;5074851;28;20051;-63
2022/03/17 11:06:30;;;;;;;10.90;2.10;;;;;;;;;;5093279;28;20118;-63
2022/03/17 11:09:00;;;;;;;12.57;1.77;;;;;;;;;;5091908;28;20036;-63
2022/03/17 11:11:27;;;;;;;8.30;1.83;;;;;;;;;;5091523;28;20049;-63
2022/03/17 11:13:53;;;;;;;17.42;2.45;;;;;;;;;;5093227;28;20379;-64
2022/03/17 11:16:21;;;;;;;9.57;1.85;;;;;;;;;;5092713;28;20054;-62
2022/03/17 11:18:48;;;;;;;9.43;2.00;;;;;;;;;;5093270;28;20083;-63
2022/03/17 11:21:22;;;;;;;14.75;2.47;;;12.90;99.90;;;;;;5092933;28;20093;-63
2022/03/17 11:23:56;;;;;;;10.45;1.90;;;;;;;;;;5092898;28;20050;-63
2022/03/17 11:26:44;;;;;;;8.65;1.92;;;12.50;99.90;;;;;;5092834;28;20040;-63
2022/03/17 11:29:14;;;;;;;9.77;1.67;;;;;;;;;;5092762;28;20140;-64
2022/03/17 11:31:56;;;;;;;8.35;1.75;;;;;;;;;;5092798;28;20592;-63
2022/03/17 11:34:38;;;;;;;7.27;1.53;;;;;;;;;;5092554;28;20047;-63
2022/03/17 11:37:16;;;;;;;8.75;1.98;;;;;;;;;;5092529;28;20131;-64
2022/03/17 11:39:49;;;;;;;8.85;1.52;;;12.40;99.90;;;;;;5092783;28;20106;-63
2022/03/17 11:42:14;;;;;;;;;;;;;;;;;;5092765;28;20097;-63
2022/03/17 11:44:40;;;;;;;8.52;1.40;;;;;;;;;;5092555;28;19916;-63
2022/03/17 11:47:10;;;;;;;7.90;1.30;;;12.90;99.90;;;;;;5092347;28;20456;-63
2022/03/17 11:49:44;;;;;;;10.77;1.70;;;13.00;99.90;;;;;;5092210;28;20040;-63
2022/03/17 11:52:11;;;;;;;8.57;1.90;;;;;;;;;;5092056;28;20433;-64
2022/03/17 11:54:37;;;;;;;11.50;1.50;;;;;;;;;;5092445;28;20052;-63
2022/03/17 11:57:06;;;;;;;8.77;1.50;;;12.60;99.90;;;;;;5092421;28;20576;-63
2022/03/17 11:59:52;;;;;;;12.43;1.88;;;;;;;;;;5090743;28;20079;-64
2022/03/17 12:02:18;;;;;;;12.75;1.83;;;;;;;;;;5091978;28;20248;-63
2022/03/17 12:04:49;;;;;;;9.25;2.00;;;12.30;99.90;;;;;;5091935;28;20126;-64
2022/03/17 12:07:18;;;;;;;8.32;1.67;;;;;;;;;;5091873;28;20123;-63
2022/03/17 12:09:44;;;;;;;7.60;2.03;;;;;;;;;;5092099;28;20082;-63
2022/03/17 12:12:22;;;;;;;10.43;1.48;;;;;;;;;;5091837;28;20071;-63
2022/03/17 12:14:56;;;;;;;9.75;1.50;;;12.60;99.90;;;;;;5092152;28;20473;-64
2022/03/17 12:17:23;;;;;;;7.00;1.60;;;;;;;;;;5090272;28;20040;-64
2022/03/17 12:20:14;;;;;;;6.45;1.40;;;12.50;99.90;;;;;;5092018;28;20394;-63
2022/03/17 12:22:44;;;;;;;5.38;1.30;;;;;;;;;;5083153;28;20133;-63
2022/03/17 12:25:20;;;;;;;11.13;1.80;;;;;;;;;;5090478;28;20059;-64
2022/03/17 12:27:51;;;;;;;9.95;1.58;;;;;;;;;;5091940;28;20478;-63
2022/03/17 12:30:18;;;;;;;9.68;1.95;;;;;;;;;;5091459;28;20051;-63
2022/03/17 12:32:48;;;;;;;11.30;1.77;;;12.50;99.90;;;;;;5091690;28;20502;-63
2022/03/17 12:35:15;;;;;;;9.88;1.40;;;;;;;;;;5091431;28;20035;-63
2022/03/17 12:37:42;;;;;;;9.98;1.52;;;12.00;99.90;;;;;;5091749;28;20031;-63
2022/03/17 12:40:19;;;;;;;12.35;1.83;;;11.90;99.90;;;;;;5091619;28;20082;-63
2022/03/17 12:42:46;;;;;;;9.13;2.05;;;;;;;;;;5091060;28;20036;-63
2022/03/17 12:45:13;;;;;;;9.55;1.55;;;;;;;;;;5091540;28;20046;-63
2022/03/17 12:47:40;;;;;;;7.13;1.20;;;;;;;;;;5091205;28;20036;-63
2022/03/17 12:50:11;;;;;;;6.22;1.27;;;12.70;99.90;;;;;;5091159;28;20032;-63
2022/03/17 12:52:40;;;;;;;8.95;1.50;;;12.50;99.90;;;;;;5091253;28;20389;-63
2022/03/17 12:55:08;;;;;;;9.02;1.60;;;;;;;;;;5091260;28;20474;-63
2022/03/17 12:57:34;;;;;;;10.25;1.67;;;;;;;;;;5090811;28;20048;-63
2022/03/17 13:00:00;;;;;;;7.35;1.20;;;;;;;;;;5091200;28;20048;-63
2022/03/17 13:02:27;;;;;;;11.52;1.58;;;;;;;;;;5090742;28;20044;-63
2022/03/17 13:04:54;;;;;;;7.72;1.42;;;13.30;99.90;;;;;;5091004;28;20093;-63
2022/03/17 13:07:26;;;;;;;4.53;1.00;;;13.80;99.90;;;;;;5090840;28;20036;-63
2022/03/17 13:09:53;;;;;;;6.55;1.42;;;14.60;99.90;;;;;;5091029;28;20470;-63
2022/03/17 13:15:13;;;;;;;11.70;1.52;;;14.20;99.90;;;;;;5090875;28;20580;-63
2022/03/17 13:17:50;;;;;;;5.82;1.33;;;14.30;99.90;;;;;;5089404;28;20114;-63
2022/03/17 13:20:15;;;;;;;4.45;1.02;;;;;;;;;;5090963;28;20509;-63
2022/03/17 13:22:42;;;;;;;10.20;1.45;;;;;;;;;;5090584;28;20040;-63
2022/03/17 13:25:13;;;;;;;6.50;1.05;;;14.70;99.90;;;;;;5090969;28;20424;-64
2022/03/17 13:27:53;;;;;;;9.45;1.95;;;15.60;99.90;;;;;;5090578;28;20086;-64
2022/03/17 13:30:19;;;;;;;8.30;1.42;;;;;;;;;;5090720;28;20048;-63
2022/03/17 13:32:59;;;;;;;4.85;1.15;;;17.90;99.90;;;;;;5090465;28;20032;-63
2022/03/17 13:35:25;;;;;;;9.38;2.08;;;;;;;;;;5090674;28;20454;-63
2022/03/17 13:38:03;;;;;;;7.43;1.35;;;18.20;95.20;;;;;;5090425;28;20032;-64
2022/03/17 13:40:40;;;;;;;5.88;1.05;;;;;;;;;;5090599;28;20035;-64
2022/03/17 13:43:07;;;;;;;8.50;1.40;;;;;;;;;;5090738;28;20044;-63
2022/03/17 13:45:40;;;;;;;5.93;1.30;;;;;;;;;;5090708;28;20513;-64
2022/03/17 13:48:06;;;;;;;11.57;2.53;;;;;;;;;;5090848;28;20043;-63
2022/03/17 13:50:33;;;;;;;7.72;1.23;;;;;;;;;;5090371;28;20043;-63
2022/03/17 13:52:59;;;;;;;3.80;1.10;;;;;;;;;;5088947;28;20032;-63
2022/03/17 13:55:57;;;;;;;8.13;1.23;;;15.50;94.30;;;;;;5092688;28;20543;-63
2022/03/17 13:58:33;;;;;;;6.85;1.20;;;16.00;94.70;;;;;;5094228;28;20549;-63
2022/03/17 14:01:19;;;;;;;6.75;1.00;;;16.00;95.80;;;;;;5094245;28;20095;-64
2022/03/17 14:03:45;;;;;;;7.38;1.35;;;;;;;;;;5094257;28;20044;-64
2022/03/17 14:06:11;;;;;;;4.13;1.20;;;;;;;;;;5094463;28;20549;-63
2022/03/17 14:08:37;;;;;;;7.10;1.23;;;;;;;;;;5094498;28;20032;-63
2022/03/17 14:11:08;;;;;;;9.50;1.70;;;;;;;;;;5094241;28;20112;-64
2022/03/17 14:13:36;;;;;;;4.57;0.90;;;18.40;92.60;;;;;;5094497;28;20092;-64
2022/03/17 14:16:02;;;;;;;4.55;1.13;;;;;;;;;;5094376;28;20131;-64
2022/03/17 14:18:28;;;;;;;4.32;1.08;;;;;;;;;;5094436;28;20051;-64
2022/03/17 14:20:58;;;;;;;6.57;1.00;;;;;;;;;;5092590;28;20051;-63
2022/03/17 14:26:09;;;;;;;10.93;1.38;;;;;;;;;;5094471;28;20036;-64
2022/03/17 14:28:35;;;;;;;3.97;1.05;;;;;;;;;;5092782;28;20040;-63
2022/03/17 14:31:01;;;;;;;5.35;0.85;;;;;;;;;;5093765;28;20040;-64
2022/03/17 14:33:27;;;;;;;5.18;1.05;;;;;;;;;;5094000;28;20043;-64
2022/03/17 14:35:53;;;;;;;6.57;1.20;;;;;;;;;;5093540;28;20047;-63
2022/03/17 14:38:20;;;;;;;3.35;0.90;;;;;;;;;;5093750;28;20146;-64
2022/03/17 14:40:47;;;;;;;4.47;0.90;;;;;;;;;;5094073;28;20055;-63